Thunder radar more information blitzortung!


Radar de pluja more information rain snow radar


Visita la nostra xarxa de llocs de meteo:

Template documentation
and downloads

And another site



No particular awareness of the weather is required.    There are no Weather-warnings

Pagina Historial Weather Underground text

Diari Resum Agost 22, 2017 Unitats:  Mètric    Imperial   Tant
« Previous Dia
SegĂźent Dia »
Diari Setmana Mensual Anual Personalitzada
  Maxima: Minima: Media:
Temperatura: 33.0 °C 18.9 °C 26.5 °C
Punt de rosada: 20.2 °C 16.0 °C 17.7 °C
Humitat: 87 % 42 % 61 %
Wind Speed: 22.2 km/h 0.0 km/h 7.2 km/h
RĂ fegues de vent: 22.2 km/h - -
Vent:- - SW
Pression baro: 1016.8 hPa 1013.8 hPa -
Precipitacions: 0.0 mm    
Historical Graphs
 
 
Dades de taula per Agost 22, 2017
Temps Temperatura Punt de rosada Pression baro Vent Wind Speed RĂ fegues de vent Humitat Rainfall Rate (Hourly)
00:03 23.2 °C 17.2 °C 1016.8 hPa SW 1.9 km/h   69 % 0.0 mm
00:05 21.2 °C 18.2 °C 1015.8 hPa Calm   1.6 km/h 83 % 0.0 mm
00:15 21.2 °C 18.2 °C 1015.8 hPa Calm     83 % 0.0 mm
00:25 21.1 °C 18.1 °C 1015.8 hPa WNW 1.6 km/h 1.6 km/h 83 % 0.0 mm
00:35 20.9 °C 17.9 °C 1015.8 hPa WNW 1.6 km/h 1.6 km/h 83 % 0.0 mm
00:45 20.7 °C 17.7 °C 1015.8 hPa WSW 1.6 km/h 1.6 km/h 83 % 0.0 mm
00:55 20.6 °C 17.6 °C 1015.8 hPa Calm   1.6 km/h 83 % 0.0 mm
01:05 20.5 °C 17.5 °C 1015.8 hPa Calm   1.6 km/h 83 % 0.0 mm
01:15 20.4 °C 17.6 °C 1015.8 hPa Calm     84 % 0.0 mm
01:25 20.3 °C 17.5 °C 1015.8 hPa Calm     84 % 0.0 mm
01:35 20.0 °C 17.0 °C 1015.8 hPa SW 3.2 km/h 3.2 km/h 83 % 0.0 mm
01:45 19.7 °C 16.7 °C 1015.8 hPa SW 3.2 km/h 4.8 km/h 83 % 0.0 mm
01:55 19.7 °C 16.9 °C 1015.8 hPa WSW 3.2 km/h 3.2 km/h 84 % 0.0 mm
02:05 19.7 °C 17.1 °C 1015.8 hPa Calm   3.2 km/h 85 % 0.0 mm
02:15 19.8 °C 17.2 °C 1015.8 hPa WSW 1.6 km/h 3.2 km/h 85 % 0.0 mm
02:25 19.7 °C 17.1 °C 1015.8 hPa Calm   1.6 km/h 85 % 0.0 mm
02:35 19.7 °C 17.1 °C 1015.8 hPa Calm     85 % 0.0 mm
02:45 19.3 °C 16.5 °C 1015.8 hPa North 3.2 km/h 3.2 km/h 84 % 0.0 mm
03:05 19.2 °C 16.6 °C 1015.8 hPa Calm   1.6 km/h 85 % 0.0 mm
03:15 19.0 °C 16.4 °C 1015.8 hPa Calm   3.2 km/h 85 % 0.0 mm
03:25 18.9 °C 16.5 °C 1015.8 hPa SW 3.2 km/h 4.8 km/h 86 % 0.0 mm
03:35 18.9 °C 16.5 °C 1015.8 hPa SW 3.2 km/h 3.2 km/h 86 % 0.0 mm
03:45 19.0 °C 16.6 °C 1015.8 hPa WSW 1.6 km/h 3.2 km/h 86 % 0.0 mm
03:55 19.1 °C 16.7 °C 1015.8 hPa WSW 1.6 km/h 3.2 km/h 86 % 0.0 mm
04:05 19.1 °C 16.7 °C 1015.8 hPa SW 3.2 km/h 3.2 km/h 86 % 0.0 mm
04:15 19.6 °C 17.4 °C 1015.8 hPa Calm   3.2 km/h 87 % 0.0 mm
04:25 20.7 °C 18.3 °C 1015.8 hPa Calm   3.2 km/h 86 % 0.0 mm
04:35 21.1 °C 18.1 °C 1015.8 hPa East 1.6 km/h 3.2 km/h 83 % 0.0 mm
04:45 22.0 °C 18.6 °C 1016.8 hPa ENE 1.6 km/h 3.2 km/h 81 % 0.0 mm
04:55 22.7 °C 18.9 °C 1016.8 hPa ENE 1.6 km/h 3.2 km/h 79 % 0.0 mm
05:05 22.7 °C 18.9 °C 1015.8 hPa SSW 1.6 km/h 3.2 km/h 79 % 0.0 mm
05:15 23.0 °C 18.6 °C 1016.8 hPa SSW 1.6 km/h 3.2 km/h 76 % 0.0 mm
05:25 22.8 °C 18.6 °C 1016.8 hPa SW 3.2 km/h 4.8 km/h 77 % 0.0 mm
05:35 23.2 °C 18.5 °C 1015.8 hPa WSW 3.2 km/h 4.8 km/h 75 % 0.0 mm
05:45 24.3 °C 19.2 °C 1015.8 hPa South 1.6 km/h 4.8 km/h 73 % 0.0 mm
05:55 25.3 °C 19.4 °C 1015.8 hPa SE 1.6 km/h 4.8 km/h 70 % 0.0 mm
11:03 27.2 °C 18.8 °C 1015.8 hPa SW 9.3 km/h 9.3 km/h 60 % 0.0 mm
11:04 27.2 °C 18.8 °C 1015.8 hPa SW 9.3 km/h 9.3 km/h 60 % 0.0 mm
11:05 27.2 °C 18.8 °C 1015.8 hPa WSW 9.3 km/h 9.3 km/h 60 % 0.0 mm
11:10 27.5 °C 19.1 °C 1015.8 hPa SW 9.3 km/h 9.3 km/h 60 % 0.0 mm
11:15 28.1 °C 19.3 °C 1015.8 hPa West 9.5 km/h 9.5 km/h 59 % 0.0 mm
11:20 28.1 °C 19.3 °C 1015.8 hPa SW 9.3 km/h 9.3 km/h 59 % 0.0 mm
11:25 28.4 °C 19.6 °C 1015.8 hPa East 5.6 km/h 5.6 km/h 59 % 0.0 mm
11:30 28.7 °C 19.6 °C 1015.8 hPa SSW 9.3 km/h 9.3 km/h 58 % 0.0 mm
11:35 29.6 °C 20.2 °C 1015.8 hPa West 6.1 km/h 6.1 km/h 57 % 0.0 mm
11:40 29.2 °C 19.8 °C 1015.8 hPa WSW 7.4 km/h 7.4 km/h 57 % 0.0 mm
11:45 29.2 °C 19.5 °C 1015.8 hPa SW 5.6 km/h 5.6 km/h 56 % 0.0 mm
11:50 29.8 °C 19.8 °C 1015.8 hPa West 9.3 km/h 9.3 km/h 55 % 0.0 mm
11:55 29.7 °C 19.4 °C 1015.8 hPa WSW 9.3 km/h 9.3 km/h 54 % 0.0 mm
12:00 29.6 °C 19.0 °C 1015.8 hPa SW 7.9 km/h 7.9 km/h 53 % 0.0 mm
12:05 29.6 °C 19.0 °C 1015.8 hPa SW 11.1 km/h 11.1 km/h 53 % 0.0 mm
12:10 30.2 °C 19.3 °C 1015.8 hPa WSW 9.3 km/h 9.3 km/h 52 % 0.0 mm
12:15 30.5 °C 19.2 °C 1014.8 hPa SSW 13.0 km/h 13.0 km/h 51 % 0.0 mm
12:20 30.3 °C 18.7 °C 1014.8 hPa SW 10.3 km/h 10.3 km/h 50 % 0.0 mm
12:25 30.5 °C 18.6 °C 1014.8 hPa SSW 5.8 km/h 5.8 km/h 49 % 0.0 mm
12:30 30.7 °C 18.8 °C 1015.8 hPa South 13.0 km/h 13.0 km/h 49 % 0.0 mm
12:35 30.5 °C 18.2 °C 1015.8 hPa SW 16.7 km/h 16.7 km/h 48 % 0.0 mm
12:40 30.8 °C 18.5 °C 1015.8 hPa SW 7.4 km/h 7.4 km/h 48 % 0.0 mm
12:45 31.1 °C 18.8 °C 1015.8 hPa WSW 9.3 km/h 9.3 km/h 48 % 0.0 mm
12:50 31.5 °C 18.8 °C 1015.8 hPa South 13.0 km/h 13.0 km/h 47 % 0.0 mm
12:55 31.6 °C 18.9 °C 1015.8 hPa SW 9.3 km/h 9.3 km/h 47 % 0.0 mm
13:00 31.7 °C 19.0 °C 1015.8 hPa SSW 9.3 km/h 9.3 km/h 47 % 0.0 mm
13:05 32.0 °C 19.3 °C 1015.8 hPa WSW 7.4 km/h 7.4 km/h 47 % 0.0 mm
13:10 32.7 °C 19.9 °C 1015.8 hPa SW 9.3 km/h 9.3 km/h 47 % 0.0 mm
13:15 33.0 °C 19.8 °C 1014.8 hPa SSW 7.6 km/h 7.6 km/h 46 % 0.0 mm
13:20 32.1 °C 19.0 °C 1014.8 hPa South 11.1 km/h 11.1 km/h 46 % 0.0 mm
13:25 32.2 °C 19.1 °C 1014.8 hPa SW 6.1 km/h 6.1 km/h 46 % 0.0 mm
13:30 32.2 °C 19.1 °C 1014.8 hPa SW 14.8 km/h 14.8 km/h 46 % 0.0 mm
13:35 32.7 °C 19.6 °C 1014.8 hPa SW 13.7 km/h 13.7 km/h 46 % 0.0 mm
13:40 32.3 °C 19.2 °C 1014.8 hPa South 9.3 km/h 9.3 km/h 46 % 0.0 mm
13:45 32.4 °C 18.9 °C 1014.8 hPa SW 9.3 km/h 9.3 km/h 45 % 0.0 mm
13:50 32.2 °C 18.8 °C 1014.8 hPa WSW 11.1 km/h 11.1 km/h 45 % 0.0 mm
13:55 32.2 °C 18.8 °C 1014.8 hPa SSW 9.3 km/h 9.3 km/h 45 % 0.0 mm
14:00 32.2 °C 18.8 °C 1014.8 hPa West 11.9 km/h 11.9 km/h 45 % 0.0 mm
14:05 32.4 °C 18.9 °C 1014.8 hPa SSW 11.1 km/h 11.1 km/h 45 % 0.0 mm
14:10 32.3 °C 18.8 °C 1014.8 hPa South 13.0 km/h 13.0 km/h 45 % 0.0 mm
14:15 32.1 °C 18.3 °C 1014.8 hPa SSW 11.1 km/h 11.1 km/h 44 % 0.0 mm
14:20 32.5 °C 19.1 °C 1014.8 hPa SSW 9.3 km/h 9.3 km/h 45 % 0.0 mm
14:25 32.6 °C 19.1 °C 1014.8 hPa SW 9.3 km/h 9.3 km/h 45 % 0.0 mm
14:30 32.8 °C 19.3 °C 1014.8 hPa SW 11.9 km/h 11.9 km/h 45 % 0.0 mm
14:35 32.7 °C 18.8 °C 1014.8 hPa SSW 9.3 km/h 9.3 km/h 44 % 0.0 mm
14:40 32.7 °C 18.8 °C 1014.8 hPa WSW 17.5 km/h 17.5 km/h 44 % 0.0 mm
14:45 32.6 °C 18.8 °C 1014.8 hPa SW 13.0 km/h 13.0 km/h 44 % 0.0 mm
14:50 32.9 °C 18.7 °C 1014.8 hPa SSW 9.3 km/h 9.3 km/h 43 % 0.0 mm
14:51 32.9 °C 18.7 °C 1014.8 hPa SW 14.8 km/h 14.8 km/h 43 % 0.0 mm
14:56 32.5 °C 17.9 °C 1014.8 hPa West 16.7 km/h 16.7 km/h 42 % 0.0 mm
15:01 32.6 °C 18.4 °C 1014.8 hPa SW 16.7 km/h 16.7 km/h 43 % 0.0 mm
15:06 32.6 °C 18.4 °C 1014.8 hPa West 16.7 km/h 16.7 km/h 43 % 0.0 mm
15:11 32.6 °C 18.0 °C 1014.8 hPa SW 14.8 km/h 14.8 km/h 42 % 0.0 mm
15:16 32.4 °C 17.8 °C 1014.8 hPa NW 13.0 km/h 13.0 km/h 42 % 0.0 mm
15:21 32.4 °C 17.8 °C 1014.8 hPa WSW 16.7 km/h 16.7 km/h 42 % 0.0 mm
15:26 32.0 °C 17.5 °C 1014.8 hPa SW 14.8 km/h 14.8 km/h 42 % 0.0 mm
15:31 31.9 °C 17.8 °C 1014.8 hPa SW 11.4 km/h 11.4 km/h 43 % 0.0 mm
15:36 31.8 °C 17.7 °C 1014.8 hPa WSW 22.2 km/h 22.2 km/h 43 % 0.0 mm
15:41 31.9 °C 17.8 °C 1014.8 hPa West 13.7 km/h 13.7 km/h 43 % 0.0 mm
15:46 31.7 °C 17.6 °C 1014.8 hPa SW 13.0 km/h 13.0 km/h 43 % 0.0 mm
15:51 32.0 °C 17.8 °C 1014.8 hPa SSW 18.5 km/h 18.5 km/h 43 % 0.0 mm
15:56 32.1 °C 17.9 °C 1013.8 hPa SW 11.1 km/h 11.1 km/h 43 % 0.0 mm
16:01 32.3 °C 18.1 °C 1013.8 hPa SW 9.7 km/h 9.7 km/h 43 % 0.0 mm
16:06 32.0 °C 17.5 °C 1013.8 hPa SSW 20.4 km/h 20.4 km/h 42 % 0.0 mm
16:11 32.3 °C 18.1 °C 1014.8 hPa WSW 16.7 km/h 16.7 km/h 43 % 0.0 mm
16:16 32.1 °C 17.6 °C 1014.8 hPa SW 13.0 km/h 13.0 km/h 42 % 0.0 mm
16:21 31.9 °C 17.8 °C 1014.8 hPa SSW 14.0 km/h 14.0 km/h 43 % 0.0 mm
16:26 31.8 °C 17.7 °C 1014.8 hPa SW 10.8 km/h 10.8 km/h 43 % 0.0 mm
16:27 31.9 °C 17.8 °C 1014.8 hPa South 11.1 km/h 11.1 km/h 43 % 0.0 mm
16:32 31.2 °C 17.1 °C 1014.8 hPa SSW 16.7 km/h 16.7 km/h 43 % 0.0 mm
16:37 31.0 °C 16.9 °C 1014.8 hPa SW 16.7 km/h 16.7 km/h 43 % 0.0 mm
16:42 31.3 °C 17.2 °C 1013.8 hPa SW 9.5 km/h 9.5 km/h 43 % 0.0 mm
16:47 31.3 °C 17.2 °C 1013.8 hPa South 16.7 km/h 16.7 km/h 43 % 0.0 mm
16:52 31.0 °C 16.9 °C 1013.8 hPa SSW 9.3 km/h 9.3 km/h 43 % 0.0 mm
16:57 31.2 °C 17.1 °C 1013.8 hPa West 11.1 km/h 11.1 km/h 43 % 0.0 mm
17:02 31.4 °C 17.3 °C 1013.8 hPa WSW 12.2 km/h 12.2 km/h 43 % 0.0 mm
17:07 31.2 °C 17.1 °C 1013.8 hPa South 16.7 km/h 16.7 km/h 43 % 0.0 mm
17:12 31.3 °C 17.2 °C 1013.8 hPa SW 7.4 km/h 7.4 km/h 43 % 0.0 mm
17:17 31.1 °C 17.1 °C 1013.8 hPa South 16.7 km/h 16.7 km/h 43 % 0.0 mm
17:22 31.0 °C 16.9 °C 1013.8 hPa South 16.1 km/h 16.1 km/h 43 % 0.0 mm
17:27 30.8 °C 17.1 °C 1013.8 hPa WSW 13.0 km/h 13.0 km/h 44 % 0.0 mm
17:32 31.1 °C 17.1 °C 1013.8 hPa SSW 7.4 km/h 7.4 km/h 43 % 0.0 mm
17:37 31.2 °C 17.5 °C 1013.8 hPa ENE 11.1 km/h 11.1 km/h 44 % 0.0 mm
17:42 30.7 °C 17.1 °C 1013.8 hPa WSW 20.4 km/h 20.4 km/h 44 % 0.0 mm
17:47 30.4 °C 16.8 °C 1013.8 hPa SW 14.8 km/h 14.8 km/h 44 % 0.0 mm
17:52 30.5 °C 17.2 °C 1013.8 hPa SW 11.1 km/h 11.1 km/h 45 % 0.0 mm
17:57 30.2 °C 16.6 °C 1013.8 hPa SW 14.8 km/h 14.8 km/h 44 % 0.0 mm
18:02 29.8 °C 16.6 °C 1013.8 hPa SW 11.4 km/h 11.4 km/h 45 % 0.0 mm
18:07 29.6 °C 16.8 °C 1013.8 hPa WSW 11.1 km/h 11.1 km/h 46 % 0.0 mm
18:12 30.2 °C 16.9 °C 1013.8 hPa SSE 7.4 km/h 7.4 km/h 45 % 0.0 mm
18:17 29.9 °C 17.0 °C 1013.8 hPa WSW 11.1 km/h 11.1 km/h 46 % 0.0 mm
18:22 29.5 °C 16.7 °C 1013.8 hPa SW 14.8 km/h 14.8 km/h 46 % 0.0 mm
18:27 29.2 °C 16.4 °C 1013.8 hPa South 20.4 km/h 20.4 km/h 46 % 0.0 mm
18:32 29.4 °C 16.9 °C 1013.8 hPa SW 9.3 km/h 9.3 km/h 47 % 0.0 mm
18:37 29.4 °C 16.9 °C 1013.8 hPa South 12.2 km/h 12.2 km/h 47 % 0.0 mm
18:42 29.2 °C 16.7 °C 1013.8 hPa SSW 9.3 km/h 9.3 km/h 47 % 0.0 mm
18:47 28.8 °C 16.7 °C 1013.8 hPa SW 13.0 km/h 13.0 km/h 48 % 0.0 mm
18:52 28.7 °C 16.6 °C 1013.8 hPa West 14.8 km/h 14.8 km/h 48 % 0.0 mm
18:57 28.5 °C 16.4 °C 1013.8 hPa SSW 10.0 km/h 10.0 km/h 48 % 0.0 mm
19:02 28.5 °C 16.4 °C 1013.8 hPa SSW 13.0 km/h 13.0 km/h 48 % 0.0 mm
19:07 28.1 °C 16.1 °C 1013.8 hPa SW 7.4 km/h 7.4 km/h 48 % 0.0 mm
19:12 28.1 °C 16.4 °C 1013.8 hPa South 11.1 km/h 11.1 km/h 49 % 0.0 mm
19:17 28.0 °C 16.3 °C 1013.8 hPa SSW 11.1 km/h 11.1 km/h 49 % 0.0 mm
19:22 28.1 °C 16.4 °C 1013.8 hPa South 7.4 km/h 7.4 km/h 49 % 0.0 mm
19:27 27.8 °C 16.1 °C 1013.8 hPa SW 9.3 km/h 9.3 km/h 49 % 0.0 mm
19:32 27.6 °C 16.2 °C 1013.8 hPa WSW 11.1 km/h 11.1 km/h 50 % 0.0 mm
19:37 27.5 °C 16.2 °C 1013.8 hPa SSW 7.4 km/h 7.4 km/h 50 % 0.0 mm
19:42 27.2 °C 16.2 °C 1013.8 hPa WSW 9.3 km/h 9.3 km/h 51 % 0.0 mm
19:47 27.0 °C 16.0 °C 1013.8 hPa SSE 11.1 km/h 11.1 km/h 51 % 0.0 mm
19:52 26.9 °C 16.5 °C 1013.8 hPa SW 9.7 km/h 9.7 km/h 53 % 0.0 mm
19:57 26.6 °C 16.5 °C 1013.8 hPa SSW 7.4 km/h 7.4 km/h 54 % 0.0 mm
20:02 26.5 °C 16.4 °C 1013.8 hPa WSW 10.0 km/h 10.0 km/h 54 % 0.0 mm
20:07 26.4 °C 16.9 °C 1013.8 hPa SW 13.0 km/h 13.0 km/h 56 % 0.0 mm
20:12 26.2 °C 16.7 °C 1013.8 hPa SW 14.8 km/h 14.8 km/h 56 % 0.0 mm
20:15 22.5 °C 17.8 °C 1015.8 hPa Calm   4.8 km/h 75 % 0.0 mm
20:17 26.1 °C 16.6 °C 1013.8 hPa SW 3.7 km/h 3.7 km/h 56 % 0.0 mm
20:22 26.0 °C 16.8 °C 1013.8 hPa SSW 7.4 km/h 7.4 km/h 57 % 0.0 mm
20:25 22.2 °C 17.6 °C 1015.8 hPa WSW 1.6 km/h 3.2 km/h 75 % 0.0 mm
20:27 25.9 °C 17.0 °C 1013.8 hPa South 9.3 km/h 9.3 km/h 58 % 0.0 mm
20:32 25.8 °C 16.6 °C 1013.8 hPa SSE 9.3 km/h 9.3 km/h 57 % 0.0 mm
20:35 21.9 °C 17.5 °C 1015.8 hPa SW 1.6 km/h 3.2 km/h 76 % 0.0 mm
20:37 25.6 °C 17.0 °C 1013.8 hPa SW 3.7 km/h 3.7 km/h 59 % 0.0 mm
20:42 25.5 °C 16.9 °C 1013.8 hPa WSW 5.6 km/h 5.6 km/h 59 % 0.0 mm
20:45 21.9 °C 17.7 °C 1014.8 hPa Calm   3.2 km/h 77 % 0.0 mm
20:47 25.3 °C 16.7 °C 1013.8 hPa SW 6.1 km/h 6.1 km/h 59 % 0.0 mm
20:52 25.2 °C 16.9 °C 1013.8 hPa WSW 3.9 km/h 3.9 km/h 60 % 0.0 mm
20:55 21.8 °C 17.6 °C 1014.8 hPa SW 1.6 km/h 3.2 km/h 77 % 0.0 mm
20:57 25.1 °C 16.8 °C 1013.8 hPa SW 5.6 km/h 5.6 km/h 60 % 0.0 mm
21:02 24.9 °C 16.8 °C 1013.8 hPa SW 5.6 km/h 5.6 km/h 61 % 0.0 mm
21:05 21.8 °C 17.6 °C 1015.8 hPa WSW 1.6 km/h 3.2 km/h 77 % 0.0 mm
21:07 24.8 °C 17.0 °C 1013.8 hPa SW 9.3 km/h 9.3 km/h 62 % 0.0 mm
21:12 24.7 °C 16.9 °C 1013.8 hPa SW 5.6 km/h 5.6 km/h 62 % 0.0 mm
21:15 21.7 °C 17.7 °C 1015.8 hPa WSW 3.2 km/h 3.2 km/h 78 % 0.0 mm
21:17 24.6 °C 17.1 °C 1013.8 hPa SW 5.6 km/h 5.6 km/h 63 % 0.0 mm
21:22 24.4 °C 17.2 °C 1013.8 hPa SW 4.2 km/h 4.2 km/h 64 % 0.0 mm
21:25 21.6 °C 17.8 °C 1015.8 hPa Calm   1.6 km/h 79 % 0.0 mm
21:27 24.4 °C 17.2 °C 1014.8 hPa SW 3.7 km/h 3.7 km/h 64 % 0.0 mm
21:32 24.3 °C 17.1 °C 1014.8 hPa SW 3.7 km/h 3.7 km/h 64 % 0.0 mm
21:35 21.5 °C 17.9 °C 1015.8 hPa Calm   1.6 km/h 80 % 0.0 mm
21:37 24.1 °C 16.9 °C 1014.8 hPa SW 5.6 km/h 5.6 km/h 64 % 0.0 mm
21:42 24.0 °C 17.0 °C 1014.8 hPa SW 4.2 km/h 4.2 km/h 65 % 0.0 mm
21:45 21.2 °C 17.2 °C 1015.8 hPa WNW 1.6 km/h 4.8 km/h 78 % 0.0 mm
21:47 23.9 °C 17.4 °C 1014.8 hPa SW 1.9 km/h 1.9 km/h 67 % 0.0 mm
21:52 23.9 °C 17.4 °C 1014.8 hPa SW 3.7 km/h 3.7 km/h 67 % 0.0 mm
21:55 21.0 °C 17.0 °C 1015.8 hPa NNE 1.6 km/h 3.2 km/h 78 % 0.0 mm
21:57 23.8 °C 17.6 °C 1014.8 hPa SW 3.7 km/h 3.7 km/h 68 % 0.0 mm
22:02 23.7 °C 17.4 °C 1014.8 hPa WSW 3.7 km/h 3.7 km/h 68 % 0.0 mm
22:05 20.8 °C 17.2 °C 1015.8 hPa Calm   3.2 km/h 80 % 0.0 mm
22:07 23.7 °C 17.7 °C 1014.8 hPa SW 1.9 km/h 2.3 km/h 69 % 0.0 mm
22:12 23.6 °C 17.6 °C 1014.8 hPa WSW 3.7 km/h 3.7 km/h 69 % 0.0 mm
22:15 20.7 °C 17.1 °C 1014.8 hPa WSW 1.6 km/h 3.2 km/h 80 % 0.0 mm
22:17 23.6 °C 17.6 °C 1014.8 hPa WSW 3.7 km/h 3.7 km/h 69 % 0.0 mm
22:22 23.5 °C 17.5 °C 1014.8 hPa SW 3.7 km/h 3.7 km/h 69 % 0.0 mm
22:25 20.4 °C 17.1 °C 1014.8 hPa Calm   3.2 km/h 81 % 0.0 mm
22:27 23.4 °C 17.6 °C 1014.8 hPa SW 1.9 km/h   70 % 0.0 mm
22:32 23.3 °C 17.5 °C 1014.8 hPa WSW 2.3 km/h   70 % 0.0 mm
22:35 20.4 °C 17.1 °C 1014.8 hPa Calm   1.6 km/h 81 % 0.0 mm
22:37 23.2 °C 17.4 °C 1014.8 hPa SW 1.9 km/h   70 % 0.0 mm
22:42 23.1 °C 17.3 °C 1014.8 hPa SW 3.7 km/h 3.7 km/h 70 % 0.0 mm
22:45 20.4 °C 17.1 °C 1014.8 hPa NNW 1.6 km/h 3.2 km/h 81 % 0.0 mm
22:47 23.1 °C 17.3 °C 1014.8 hPa SW 3.7 km/h 3.7 km/h 70 % 0.0 mm
22:52 23.0 °C 17.4 °C 1014.8 hPa Calm     71 % 0.0 mm
22:55 20.5 °C 17.3 °C 1014.8 hPa Calm   3.2 km/h 82 % 0.0 mm
22:57 23.0 °C 17.4 °C 1014.8 hPa WSW 2.6 km/h 2.6 km/h 71 % 0.0 mm
23:02 23.0 °C 17.4 °C 1014.8 hPa WSW 2.6 km/h 2.6 km/h 71 % 0.0 mm
23:05 20.5 °C 17.3 °C 1013.8 hPa NE 1.6 km/h 3.2 km/h 82 % 0.0 mm
23:07 23.0 °C 17.7 °C 1014.8 hPa WSW 1.9 km/h   72 % 0.0 mm
23:12 23.0 °C 17.7 °C 1014.8 hPa WSW 2.6 km/h 2.6 km/h 72 % 0.0 mm
23:15 20.4 °C 17.2 °C 1013.8 hPa ENE 3.2 km/h 4.8 km/h 82 % 0.0 mm
23:17 23.0 °C 17.7 °C 1014.8 hPa West 1.9 km/h 1.9 km/h 72 % 0.0 mm
23:22 22.9 °C 17.6 °C 1014.8 hPa WSW 1.9 km/h   72 % 0.0 mm
23:25 19.9 °C 16.3 °C 1013.8 hPa NE 4.8 km/h 6.4 km/h 80 % 0.0 mm
23:27 22.8 °C 17.7 °C 1015.8 hPa Calm     73 % 0.0 mm
23:32 22.8 °C 17.7 °C 1015.8 hPa Calm     73 % 0.0 mm
23:35 19.8 °C 16.6 °C 1014.8 hPa WSW 3.2 km/h 4.8 km/h 82 % 0.0 mm
23:37 22.7 °C 17.6 °C 1015.8 hPa Calm     73 % 0.0 mm
23:42 22.7 °C 17.8 °C 1014.8 hPa Calm     74 % 0.0 mm
23:45 19.9 °C 16.9 °C 1014.8 hPa Calm   3.2 km/h 83 % 0.0 mm
23:47 22.7 °C 17.8 °C 1014.8 hPa Calm     74 % 0.0 mm
23:52 22.6 °C 17.7 °C 1014.8 hPa Calm     74 % 0.0 mm
23:55 20.3 °C 17.1 °C 1014.8 hPa West 3.2 km/h 4.8 km/h 82 % 0.0 mm
23:57 22.6 °C 17.7 °C 1015.8 hPa Calm     74 % 0.0 mm
Meteo Sesrovires
Elogis d' Weather Underground - 3.75 mb

Guio original per  Jim McMurry - jmcmurry@mwt.net Adaptat per a la plantilla per  Wim van der Kuil - Leuven-Template.eu

Trobareu la nostra informacio del temps tambe a:

Weather Underground

AWEKAS